createdAt,value
2022-10-15T04:31:59.655Z,25.97
2022-10-15T04:37:02.375Z,26.33
2022-10-15T04:42:05.114Z,22.90
2022-10-15T04:47:07.810Z,23.30
2022-10-15T04:52:10.529Z,20.43
2022-10-15T04:57:13.458Z,20.13
2022-10-15T05:02:16.209Z,25.70
2022-10-15T05:07:18.927Z,26.23
2022-10-15T05:12:21.732Z,27.57
2022-10-15T05:17:24.719Z,26.27
2022-10-15T05:22:27.771Z,27.13
2022-10-15T05:27:30.490Z,23.83
2022-10-15T05:32:33.183Z,22.00
2022-10-15T05:37:35.894Z,21.83
2022-10-15T05:42:38.599Z,21.20
2022-10-15T05:47:41.293Z,21.47
2022-10-15T05:52:43.984Z,21.83
2022-10-15T05:57:46.691Z,20.90
2022-10-15T06:02:49.607Z,19.90
2022-10-15T06:07:52.705Z,21.33
2022-10-15T06:12:55.602Z,20.10
2022-10-15T06:17:58.329Z,20.20
2022-10-15T06:23:01.224Z,20.57
2022-10-15T06:28:05.520Z,20.13
2022-10-15T06:33:08.269Z,21.10
2022-10-15T06:38:11.314Z,19.03
2022-10-15T06:43:14.070Z,18.67
2022-10-15T06:48:16.789Z,17.53
2022-10-15T06:53:19.569Z,18.27
2022-10-15T06:58:22.343Z,18.23
2022-10-15T07:03:25.049Z,17.93
2022-10-15T07:08:27.776Z,18.37
2022-10-15T07:13:30.847Z,18.30
2022-10-15T07:18:34.145Z,17.70
2022-10-15T07:23:36.862Z,18.17
2022-10-15T07:28:39.599Z,18.53
2022-10-15T07:33:43.931Z,18.23
2022-10-15T07:38:46.811Z,17.87
2022-10-15T07:43:53.713Z,19.00
2022-10-15T07:48:56.577Z,20.53
2022-10-15T07:53:59.326Z,16.97
2022-10-15T07:59:02.488Z,15.77
2022-10-15T08:04:05.327Z,16.37
2022-10-15T08:09:08.061Z,16.03
2022-10-15T08:14:10.822Z,15.50
2022-10-15T08:19:17.460Z,15.37
2022-10-15T08:24:20.247Z,15.40
2022-10-15T08:29:22.936Z,14.20
2022-10-15T08:34:25.987Z,14.60
2022-10-15T08:39:28.731Z,13.47
2022-10-15T08:44:48.762Z,13.13
2022-10-15T08:49:59.429Z,12.33
2022-10-15T08:55:02.731Z,11.90
2022-10-15T09:00:26.405Z,9.93
2022-10-15T09:05:46.967Z,10.47
2022-10-15T09:10:57.992Z,9.43
2022-10-15T09:16:09.651Z,9.50
2022-10-15T09:21:14.103Z,9.33
2022-10-15T09:26:27.434Z,8.37
2022-10-15T09:31:51.061Z,8.67
2022-10-15T09:36:59.196Z,8.07
2022-10-15T09:42:30.733Z,8.00
2022-10-15T09:47:35.350Z,7.60
2022-10-15T09:53:06.502Z,8.10
2022-10-15T09:58:47.797Z,7.23
2022-10-15T10:04:09.526Z,8.00
2022-10-15T10:09:24.552Z,6.87
2022-10-15T10:14:52.963Z,6.60
2022-10-15T10:20:04.861Z,6.60
2022-10-15T10:25:26.551Z,6.30
2022-10-15T10:30:36.838Z,5.80
2022-10-15T10:35:50.649Z,6.47
2022-10-15T10:40:59.145Z,6.83
2022-10-15T10:46:19.218Z,5.87
2022-10-15T10:51:25.750Z,6.67
2022-10-15T10:56:39.461Z,6.00
2022-10-15T11:01:42.662Z,5.77
2022-10-15T11:07:18.012Z,6.37
2022-10-15T11:12:38.860Z,6.33
2022-10-15T11:17:44.268Z,6.60
2022-10-15T11:22:53.033Z,6.47
2022-10-15T11:28:19.209Z,5.43
2022-10-15T11:33:29.612Z,6.37
2022-10-15T11:38:49.525Z,5.63
2022-10-15T11:43:58.425Z,6.13
2022-10-15T11:49:25.081Z,5.57
2022-10-15T11:54:47.782Z,6.00
2022-10-15T12:00:21.356Z,6.00
2022-10-15T12:05:35.943Z,5.80
2022-10-15T12:10:53.866Z,6.13
2022-10-15T12:16:08.646Z,5.47
2022-10-15T12:21:40.653Z,5.60
2022-10-15T12:26:43.336Z,5.70
2022-10-15T12:31:55.775Z,5.73
2022-10-15T12:37:05.244Z,6.53
2022-10-15T12:42:28.262Z,5.53
2022-10-15T12:48:09.601Z,5.80
2022-10-15T12:53:29.127Z,5.50
2022-10-15T12:58:49.188Z,5.37
2022-10-15T13:03:51.824Z,5.53
2022-10-15T13:09:02.554Z,5.77
2022-10-15T13:14:16.325Z,5.40
2022-10-15T13:19:28.998Z,5.23
2022-10-15T13:24:43.119Z,5.00
2022-10-15T13:29:59.025Z,5.37
2022-10-15T13:35:02.553Z,6.27
2022-10-15T13:40:08.026Z,5.97
2022-10-15T13:45:19.220Z,6.93
2022-10-15T13:50:34.935Z,6.00
2022-10-15T13:55:40.086Z,6.33
2022-10-15T14:00:43.194Z,5.20
2022-10-15T14:05:47.600Z,5.77
2022-10-15T14:10:51.555Z,5.40
2022-10-15T14:15:59.690Z,5.53
2022-10-15T14:21:03.408Z,5.77
2022-10-15T14:26:06.338Z,5.77
2022-10-15T14:31:09.537Z,7.80
2022-10-15T14:36:30.020Z,5.67
2022-10-15T14:41:34.511Z,5.63
2022-10-15T14:46:40.467Z,5.80
2022-10-15T14:51:43.193Z,5.73
2022-10-15T14:56:46.077Z,5.37
2022-10-15T15:02:00.022Z,5.90
2022-10-15T15:07:31.910Z,6.20
2022-10-15T15:12:34.990Z,5.50
2022-10-15T15:17:37.723Z,5.40
2022-10-15T15:22:41.858Z,4.97
2022-10-15T15:27:44.589Z,5.63
2022-10-15T15:32:48.164Z,5.10
2022-10-15T15:37:51.298Z,5.30
2022-10-15T15:42:54.072Z,6.20
2022-10-15T15:47:58.852Z,5.57
2022-10-15T15:53:01.715Z,6.57
2022-10-15T15:58:04.451Z,5.83
2022-10-15T16:03:08.802Z,5.80
2022-10-15T16:08:12.001Z,5.70
2022-10-15T16:13:14.897Z,5.70
2022-10-15T16:18:17.594Z,5.53
2022-10-15T16:23:20.269Z,5.87
2022-10-15T16:28:23.264Z,5.70
2022-10-15T16:33:25.952Z,6.00
2022-10-15T16:38:28.682Z,6.00
2022-10-15T16:43:31.389Z,6.40
2022-10-15T16:48:34.895Z,6.90
2022-10-15T16:53:38.326Z,6.43
2022-10-15T16:58:41.385Z,6.23
2022-10-15T17:03:45.184Z,5.80
2022-10-15T17:08:50.845Z,6.77
2022-10-15T17:13:56.095Z,6.40
2022-10-15T17:18:59.329Z,7.57
2022-10-15T17:24:04.088Z,7.50
2022-10-15T17:29:20.609Z,7.67
2022-10-15T17:34:24.011Z,8.17
2022-10-15T17:39:26.872Z,9.00
2022-10-15T17:44:29.640Z,8.43
2022-10-15T17:49:32.401Z,8.90
2022-10-15T17:54:35.191Z,9.40
2022-10-15T17:59:37.893Z,9.43
2022-10-15T18:04:40.779Z,9.20
2022-10-15T18:09:43.477Z,9.20
2022-10-15T18:14:46.285Z,9.27
2022-10-15T18:19:49.336Z,9.70
2022-10-15T18:24:52.037Z,9.83
2022-10-15T18:29:54.687Z,9.77
2022-10-15T18:34:57.378Z,10.03
2022-10-15T18:40:00.087Z,10.60
2022-10-15T18:45:02.890Z,10.30
2022-10-15T18:50:06.410Z,11.27
2022-10-15T18:55:10.659Z,10.03
2022-10-15T19:00:14.208Z,11.37
2022-10-15T19:05:18.504Z,10.77
2022-10-15T19:10:22.003Z,11.60
2022-10-15T19:15:24.687Z,10.77
2022-10-15T19:20:27.450Z,11.73
2022-10-15T19:25:30.205Z,11.23
2022-10-15T19:30:33.006Z,12.00
2022-10-15T19:35:40.375Z,12.50
2022-10-15T19:40:51.813Z,13.73
2022-10-15T19:46:04.809Z,13.03
2022-10-15T19:51:07.707Z,13.97
2022-10-15T19:56:11.636Z,13.03
2022-10-15T20:01:14.437Z,13.30
2022-10-15T20:06:17.224Z,13.20
2022-10-15T20:11:20.125Z,12.47
2022-10-15T20:16:23.735Z,12.90
2022-10-15T20:21:27.501Z,12.00
2022-10-15T20:26:30.484Z,10.93
2022-10-15T20:31:34.993Z,11.73
2022-10-15T20:36:41.366Z,11.13
2022-10-15T20:41:44.115Z,10.40
2022-10-15T20:46:51.542Z,9.83
2022-10-15T20:51:54.319Z,10.90
2022-10-15T20:56:57.078Z,10.83
2022-10-15T21:01:59.795Z,10.23
2022-10-15T21:07:02.641Z,10.40
2022-10-15T21:12:06.108Z,11.83
2022-10-15T21:17:09.070Z,12.73
2022-10-15T21:22:11.742Z,14.13
2022-10-15T21:27:14.477Z,15.53
2022-10-15T21:32:17.280Z,15.37
2022-10-15T21:37:19.949Z,15.70
2022-10-15T21:42:22.653Z,15.50
2022-10-15T21:47:25.678Z,16.60
2022-10-15T21:52:28.609Z,16.00
2022-10-15T21:57:32.722Z,14.57
2022-10-15T22:02:35.402Z,13.53
2022-10-15T22:07:40.253Z,11.97
2022-10-15T22:12:43.165Z,10.63
2022-10-15T22:17:45.834Z,10.97
2022-10-15T22:22:48.602Z,10.90
2022-10-15T22:27:51.290Z,11.13
2022-10-15T22:32:54.022Z,10.47
2022-10-15T22:37:58.087Z,11.10
2022-10-15T22:43:00.791Z,11.37
2022-10-15T22:48:03.557Z,9.90
2022-10-15T22:53:06.256Z,10.23
2022-10-15T22:58:08.962Z,9.53
2022-10-15T23:03:11.635Z,9.97
2022-10-15T23:08:14.320Z,9.63
2022-10-15T23:13:17.061Z,10.10
2022-10-15T23:18:19.815Z,9.63
2022-10-15T23:23:22.510Z,9.53
2022-10-15T23:28:25.479Z,9.30
